createdAt,value
2018-08-28T00:01:22.945Z,3.40
2018-08-28T00:03:52.841Z,1.83
2018-08-28T00:06:21.899Z,2.40
2018-08-28T00:08:51.193Z,2.50
2018-08-28T00:11:20.259Z,2.20
2018-08-28T00:13:48.963Z,2.90
2018-08-28T00:16:17.786Z,2.97
2018-08-28T00:18:46.950Z,2.60
2018-08-28T00:21:15.871Z,3.13
2018-08-28T00:23:44.960Z,2.87
2018-08-28T00:26:13.681Z,2.10
2018-08-28T00:28:42.769Z,2.97
2018-08-28T00:31:11.793Z,3.20
2018-08-28T00:33:43.903Z,2.03
2018-08-28T00:36:12.979Z,2.20
2018-08-28T00:38:43.288Z,2.67
2018-08-28T00:41:13.045Z,2.13
2018-08-28T00:43:43.012Z,3.27
2018-08-28T00:46:12.877Z,2.80
2018-08-28T00:48:42.480Z,2.70
2018-08-28T00:51:12.395Z,2.50
2018-08-28T00:53:42.157Z,2.43
2018-08-28T00:56:11.204Z,2.63
2018-08-28T00:58:40.134Z,3.10
2018-08-28T01:01:09.255Z,2.37
2018-08-28T01:03:38.677Z,2.30
2018-08-28T01:06:07.692Z,2.57
2018-08-28T01:08:36.842Z,2.97
2018-08-28T01:11:07.459Z,3.00
2018-08-28T01:13:36.220Z,2.70
2018-08-28T01:16:05.193Z,2.80
2018-08-28T01:18:34.295Z,3.40
2018-08-28T01:21:03.575Z,2.30
2018-08-28T01:23:32.875Z,2.60
2018-08-28T01:26:01.876Z,2.93
2018-08-28T01:28:30.609Z,2.80
2018-08-28T01:30:59.367Z,3.03
2018-08-28T01:33:28.140Z,2.30
2018-08-28T01:35:56.880Z,2.70
2018-08-28T01:38:25.939Z,2.37
2018-08-28T01:40:54.754Z,2.20
2018-08-28T01:43:25.366Z,2.53
2018-08-28T01:45:55.549Z,3.07
2018-08-28T01:48:24.931Z,3.47
2018-08-28T01:50:53.923Z,3.10
2018-08-28T01:53:23.133Z,2.77
2018-08-28T01:55:51.837Z,2.83
2018-08-28T01:58:20.964Z,4.50
2018-08-28T02:00:49.735Z,3.60
2018-08-28T02:03:18.516Z,3.80
2018-08-28T02:05:47.275Z,3.57
2018-08-28T02:08:16.740Z,3.03
2018-08-28T02:10:46.010Z,3.13
2018-08-28T02:13:15.092Z,3.03
2018-08-28T02:15:44.190Z,3.57
2018-08-28T02:18:13.551Z,3.40
2018-08-28T02:20:42.279Z,2.97
2018-08-28T02:23:11.579Z,3.13
2018-08-28T02:25:40.409Z,3.60
2018-08-28T02:28:09.993Z,4.10
2018-08-28T02:30:38.791Z,3.70
2018-08-28T02:33:07.584Z,3.43
2018-08-28T02:35:36.644Z,3.27
2018-08-28T02:38:05.960Z,3.80
2018-08-28T02:40:34.714Z,3.80
2018-08-28T02:43:03.537Z,3.33
2018-08-28T02:45:32.419Z,3.57
2018-08-28T02:48:01.168Z,3.77
2018-08-28T02:50:30.610Z,4.77
2018-08-28T02:52:59.356Z,4.87
2018-08-28T02:55:28.599Z,3.43
2018-08-28T02:57:57.550Z,4.50
2018-08-28T03:00:26.800Z,4.23
2018-08-28T03:02:55.702Z,4.00
2018-08-28T03:05:24.466Z,4.37
2018-08-28T03:07:53.215Z,3.93
2018-08-28T03:10:22.495Z,3.53
2018-08-28T03:12:51.499Z,4.30
2018-08-28T03:15:20.568Z,4.37
2018-08-28T03:17:49.607Z,3.33
2018-08-28T03:20:18.758Z,3.97
2018-08-28T03:22:48.039Z,3.60
2018-08-28T03:25:17.312Z,4.20
2018-08-28T03:27:46.107Z,3.63
2018-08-28T03:30:15.517Z,4.20
2018-08-28T03:32:44.280Z,4.80
2018-08-28T03:35:13.395Z,3.80
2018-08-28T03:37:42.529Z,3.97
2018-08-28T03:40:11.815Z,3.50
2018-08-28T03:42:40.600Z,4.03
2018-08-28T03:45:09.911Z,4.50
2018-08-28T03:47:38.660Z,4.47
2018-08-28T03:50:07.435Z,4.67
2018-08-28T03:52:36.923Z,4.10
2018-08-28T03:55:05.707Z,4.47
2018-08-28T03:57:34.733Z,4.00
2018-08-28T04:00:03.507Z,4.37
2018-08-28T04:02:32.678Z,3.57
2018-08-28T04:05:01.844Z,3.43
2018-08-28T04:07:30.581Z,4.20
2018-08-28T04:10:00.539Z,3.90
2018-08-28T04:12:29.608Z,4.50
2018-08-28T04:14:58.620Z,4.70
2018-08-28T04:17:27.690Z,3.77
2018-08-28T04:19:56.672Z,3.77
2018-08-28T04:22:25.683Z,5.03
2018-08-28T04:24:54.482Z,5.20
2018-08-28T04:27:23.451Z,5.73
2018-08-28T04:29:52.492Z,4.00
2018-08-28T04:32:21.211Z,4.73
2018-08-28T04:34:50.391Z,5.07
2018-08-28T04:37:19.409Z,4.30
2018-08-28T04:39:48.911Z,4.80
2018-08-28T04:42:18.806Z,5.50
2018-08-28T04:44:47.836Z,5.50
2018-08-28T04:47:17.117Z,5.57
2018-08-28T04:49:46.316Z,5.50
2018-08-28T04:52:16.027Z,5.30
2018-08-28T04:54:45.284Z,5.43
2018-08-28T04:57:14.103Z,5.07
2018-08-28T04:59:43.494Z,4.70
2018-08-28T05:02:12.357Z,6.03
2018-08-28T05:04:41.457Z,5.37
2018-08-28T05:07:10.282Z,4.57
2018-08-28T05:09:39.059Z,5.30
2018-08-28T05:12:09.035Z,5.77
2018-08-28T05:14:37.812Z,5.93
2018-08-28T05:17:06.839Z,5.87
2018-08-28T05:19:35.640Z,5.93
2018-08-28T05:22:04.446Z,6.20
2018-08-28T05:24:33.248Z,5.73
2018-08-28T05:27:02.010Z,6.30
2018-08-28T05:29:31.097Z,6.90
2018-08-28T05:32:00.145Z,6.20
2018-08-28T05:34:35.217Z,5.73
2018-08-28T05:37:04.123Z,6.50
2018-08-28T05:39:32.956Z,7.03
2018-08-28T05:42:02.234Z,6.10
2018-08-28T05:44:30.960Z,6.20
2018-08-28T05:47:00.355Z,5.60
2018-08-28T05:49:29.106Z,6.40
2018-08-28T05:51:57.986Z,5.73
2018-08-28T05:54:26.814Z,8.70
2018-08-28T05:56:58.509Z,5.83
2018-08-28T05:59:27.246Z,6.70
2018-08-28T06:01:56.262Z,6.20
2018-08-28T06:04:25.447Z,6.10
2018-08-28T06:06:54.534Z,6.77
2018-08-28T06:09:23.239Z,6.20
2018-08-28T06:11:52.046Z,6.60
2018-08-28T06:14:21.062Z,6.17
2018-08-28T06:16:49.849Z,6.90
2018-08-28T06:19:18.867Z,6.67
2018-08-28T06:21:47.641Z,5.70
2018-08-28T06:24:16.427Z,6.50
2018-08-28T06:26:45.190Z,6.57
2018-08-28T06:29:14.222Z,6.90
2018-08-28T06:31:43.278Z,6.47
2018-08-28T06:34:12.315Z,7.30
2018-08-28T06:36:41.157Z,7.00
2018-08-28T06:39:10.484Z,6.50
2018-08-28T06:41:39.677Z,6.93
2018-08-28T06:44:08.931Z,6.90
2018-08-28T06:46:37.665Z,6.20
2018-08-28T06:49:06.447Z,6.73
2018-08-28T06:51:35.486Z,6.43
2018-08-28T06:54:04.615Z,6.63
2018-08-28T06:56:33.374Z,6.50
2018-08-28T06:59:02.447Z,7.40
2018-08-28T07:01:31.488Z,6.40
2018-08-28T07:04:00.766Z,6.70
2018-08-28T07:06:29.968Z,6.83
2018-08-28T07:08:58.745Z,6.23
2018-08-28T07:11:27.842Z,6.00
2018-08-28T07:13:57.137Z,7.00
2018-08-28T07:16:25.836Z,6.70
2018-08-28T07:18:54.680Z,6.70
2018-08-28T07:21:23.494Z,7.60
2018-08-28T07:23:52.494Z,7.20
2018-08-28T07:26:21.502Z,7.37
2018-08-28T07:28:50.966Z,6.50
2018-08-28T07:31:20.441Z,6.57
2018-08-28T07:33:49.162Z,6.83
2018-08-28T07:36:17.967Z,5.87
2018-08-28T07:38:47.163Z,7.03
2018-08-28T07:41:15.896Z,6.23
2018-08-28T07:43:44.967Z,6.40
2018-08-28T07:46:13.723Z,7.97
2018-08-28T07:48:43.125Z,6.57
2018-08-28T07:51:11.998Z,6.20
2018-08-28T07:53:40.814Z,6.10
2018-08-28T07:56:09.790Z,6.80
2018-08-28T07:58:39.118Z,7.13
2018-08-28T08:01:08.247Z,5.90
2018-08-28T08:03:37.646Z,6.50
2018-08-28T08:06:06.956Z,6.37
2018-08-28T08:08:36.205Z,6.17
2018-08-28T08:11:05.367Z,5.87
2018-08-28T08:13:34.646Z,6.20
2018-08-28T08:16:03.697Z,6.23
2018-08-28T08:18:32.480Z,6.70
2018-08-28T08:21:01.562Z,6.23
2018-08-28T08:23:30.868Z,6.67
2018-08-28T08:25:59.583Z,5.47
2018-08-28T08:28:28.335Z,5.40
2018-08-28T08:30:57.827Z,5.90
2018-08-28T08:33:26.831Z,4.93
2018-08-28T08:35:55.585Z,4.13
2018-08-28T08:38:24.975Z,4.10
2018-08-28T08:40:54.953Z,4.20
2018-08-28T08:43:24.339Z,4.40
2018-08-28T08:45:53.373Z,4.73
2018-08-28T08:48:22.651Z,5.27
2018-08-28T08:50:51.663Z,3.87
2018-08-28T08:53:20.424Z,4.20
2018-08-28T08:55:49.144Z,3.83
2018-08-28T08:58:18.185Z,3.70
2018-08-28T09:00:46.908Z,4.20
2018-08-28T09:03:16.155Z,4.03
2018-08-28T09:05:45.458Z,4.20
2018-08-28T09:08:14.527Z,4.40
2018-08-28T09:10:43.634Z,3.37
2018-08-28T09:13:19.123Z,3.73
2018-08-28T09:15:48.261Z,3.93
2018-08-28T09:18:17.685Z,4.80
2018-08-28T09:20:47.035Z,4.60
2018-08-28T09:23:16.099Z,4.13
2018-08-28T09:25:44.813Z,3.07
2018-08-28T09:28:14.023Z,3.23
2018-08-28T09:30:43.001Z,4.80
2018-08-28T09:33:11.757Z,4.00
2018-08-28T09:35:40.839Z,3.67
2018-08-28T09:38:09.579Z,4.20
2018-08-28T09:40:38.647Z,4.57
2018-08-28T09:43:07.811Z,3.67
2018-08-28T09:45:36.539Z,4.13
2018-08-28T09:48:06.042Z,3.43
2018-08-28T09:50:34.766Z,2.80
2018-08-28T09:53:04.035Z,2.73
2018-08-28T09:55:33.014Z,2.47
2018-08-28T09:58:01.705Z,2.87
2018-08-28T10:00:30.582Z,2.73
2018-08-28T10:02:59.676Z,3.47
2018-08-28T10:05:28.818Z,3.30
2018-08-28T10:07:57.686Z,3.77
2018-08-28T10:10:26.572Z,2.97
2018-08-28T10:12:56.098Z,2.93
2018-08-28T10:15:24.806Z,3.03
2018-08-28T10:17:53.838Z,2.80
2018-08-28T10:20:22.717Z,3.80
2018-08-28T10:22:51.525Z,3.00
2018-08-28T10:25:20.491Z,3.10
2018-08-28T10:27:49.238Z,3.43
2018-08-28T10:30:18.033Z,3.13
2018-08-28T10:32:46.979Z,3.60
2018-08-28T10:35:16.098Z,3.47
2018-08-28T10:37:44.828Z,3.60
2018-08-28T10:40:14.508Z,2.70
2018-08-28T10:42:43.821Z,3.80
2018-08-28T10:45:13.293Z,3.73
2018-08-28T10:47:42.103Z,3.83
2018-08-28T10:50:11.202Z,4.10
2018-08-28T10:52:39.915Z,3.60
2018-08-28T10:55:08.919Z,4.27
2018-08-28T10:57:37.691Z,3.93
2018-08-28T11:00:06.804Z,3.70
2018-08-28T11:02:35.894Z,3.90
2018-08-28T11:05:04.686Z,3.60
2018-08-28T11:07:33.798Z,3.50
2018-08-28T11:10:02.604Z,2.80
2018-08-28T11:12:31.360Z,3.80
2018-08-28T11:15:00.184Z,3.50
2018-08-28T11:17:29.248Z,3.00
2018-08-28T11:19:58.780Z,2.30
2018-08-28T11:22:27.793Z,2.93
2018-08-28T11:24:56.872Z,3.40
2018-08-28T11:27:26.175Z,4.20
2018-08-28T11:29:54.984Z,3.70
2018-08-28T11:32:23.743Z,4.17
2018-08-28T11:34:52.482Z,3.00
2018-08-28T11:37:21.566Z,3.10
2018-08-28T11:39:50.289Z,4.13
2018-08-28T11:42:19.358Z,3.80
2018-08-28T11:44:48.405Z,3.60
2018-08-28T11:47:17.242Z,3.37
2018-08-28T11:49:52.488Z,3.37
2018-08-28T11:52:21.174Z,4.03
2018-08-28T11:54:49.927Z,3.50
2018-08-28T11:57:18.982Z,3.90
2018-08-28T11:59:48.260Z,2.47
2018-08-28T12:02:17.316Z,3.00
2018-08-28T12:04:46.091Z,2.37
2018-08-28T12:07:14.893Z,2.77
2018-08-28T12:09:43.956Z,2.50
2018-08-28T12:12:13.148Z,2.30
2018-08-28T12:14:42.275Z,2.73
2018-08-28T12:17:11.383Z,3.10
2018-08-28T12:19:40.812Z,2.63
2018-08-28T12:22:09.814Z,3.20
2018-08-28T12:24:38.938Z,2.90
2018-08-28T12:27:08.117Z,2.67
2018-08-28T12:29:37.549Z,2.27
2018-08-28T12:32:06.563Z,2.77
2018-08-28T12:34:35.292Z,2.33
2018-08-28T12:37:04.159Z,3.77
2018-08-28T12:39:32.911Z,2.63
2018-08-28T12:42:01.651Z,4.10
2018-08-28T12:44:30.403Z,2.90
2018-08-28T12:46:59.202Z,3.87
2018-08-28T12:49:27.959Z,2.70
2018-08-28T12:51:57.003Z,3.37
2018-08-28T12:54:25.770Z,3.27
2018-08-28T12:56:54.734Z,3.27
2018-08-28T12:59:23.910Z,3.80
2018-08-28T13:01:53.404Z,2.80
2018-08-28T13:04:22.609Z,3.83
2018-08-28T13:06:51.977Z,3.20
2018-08-28T13:09:21.140Z,3.10
2018-08-28T13:11:50.163Z,4.17
2018-08-28T13:14:19.703Z,3.30
2018-08-28T13:16:48.950Z,3.73
2018-08-28T13:19:17.709Z,3.80
2018-08-28T13:21:47.133Z,3.47
2018-08-28T13:24:16.094Z,4.10
2018-08-28T13:26:44.843Z,4.27
2018-08-28T13:29:13.633Z,3.97
2018-08-28T13:31:42.653Z,3.80
2018-08-28T13:34:12.005Z,3.47
2018-08-28T13:36:46.870Z,4.20
2018-08-28T13:39:15.811Z,4.07
2018-08-28T13:41:44.776Z,3.87
2018-08-28T13:44:14.427Z,4.00
2018-08-28T13:46:50.105Z,4.00
2018-08-28T13:49:18.800Z,3.07
2018-08-28T13:51:47.876Z,4.80
2018-08-28T13:54:16.971Z,4.00
2018-08-28T13:56:45.728Z,3.63
2018-08-28T13:59:14.450Z,4.03
2018-08-28T14:01:43.542Z,4.27
2018-08-28T14:04:12.298Z,4.10
2018-08-28T14:06:41.077Z,5.33
2018-08-28T14:09:10.171Z,3.93
2018-08-28T14:11:38.899Z,4.00
2018-08-28T14:14:07.689Z,5.53
2018-08-28T14:16:36.457Z,4.13
2018-08-28T14:19:05.186Z,4.83
2018-08-28T14:21:34.204Z,3.87
2018-08-28T14:24:03.060Z,3.90
2018-08-28T14:26:38.843Z,4.00
2018-08-28T14:29:08.833Z,4.10
2018-08-28T14:31:37.972Z,4.80
2018-08-28T14:34:06.737Z,4.80
2018-08-28T14:36:35.483Z,4.27
2018-08-28T14:39:05.775Z,4.53
2018-08-28T14:41:34.536Z,5.80
2018-08-28T14:44:03.655Z,4.77
2018-08-28T14:46:32.551Z,5.83
2018-08-28T14:49:02.115Z,4.53
2018-08-28T14:51:30.893Z,5.00
2018-08-28T14:53:59.718Z,5.10
2018-08-28T14:56:28.938Z,4.27
2018-08-28T14:58:58.378Z,4.53
2018-08-28T15:01:27.211Z,5.77
2018-08-28T15:03:56.001Z,4.70
2018-08-28T15:06:24.730Z,4.33
2018-08-28T15:08:53.686Z,4.47
2018-08-28T15:11:22.766Z,3.83
2018-08-28T15:13:51.884Z,4.07
2018-08-28T15:16:20.966Z,3.97
2018-08-28T15:18:50.141Z,4.77
2018-08-28T15:21:18.920Z,4.50
2018-08-28T15:23:47.688Z,4.37
2018-08-28T15:26:16.484Z,4.50
2018-08-28T15:28:45.673Z,4.90
2018-08-28T15:31:14.647Z,4.80
2018-08-28T15:33:44.087Z,4.40
2018-08-28T15:36:13.174Z,4.80
2018-08-28T15:38:42.247Z,4.13
2018-08-28T15:41:11.297Z,4.10
2018-08-28T15:43:40.007Z,4.23
2018-08-28T15:46:09.162Z,5.20
2018-08-28T15:48:39.220Z,4.07
2018-08-28T15:51:08.054Z,3.47
2018-08-28T15:53:37.177Z,3.80
2018-08-28T15:56:06.322Z,6.40
2018-08-28T15:58:35.081Z,3.43
2018-08-28T16:01:04.059Z,3.77
2018-08-28T16:03:32.811Z,4.13
2018-08-28T16:06:01.846Z,3.93
2018-08-28T16:08:30.880Z,3.50
2018-08-28T16:11:00.004Z,3.97
2018-08-28T16:13:29.576Z,3.50
2018-08-28T16:15:58.826Z,4.50
2018-08-28T16:18:27.956Z,4.20
2018-08-28T16:20:56.916Z,3.70
2018-08-28T16:23:30.273Z,3.57
2018-08-28T16:25:59.584Z,3.80
2018-08-28T16:28:28.898Z,3.73
2018-08-28T16:30:57.774Z,3.60
2018-08-28T16:33:26.489Z,4.30
2018-08-28T16:35:55.295Z,3.63
2018-08-28T16:38:24.348Z,4.70
2018-08-28T16:40:53.876Z,4.00
2018-08-28T16:43:23.211Z,4.00
2018-08-28T16:45:52.257Z,4.57
2018-08-28T16:48:21.049Z,4.90
2018-08-28T16:50:50.302Z,4.50
2018-08-28T16:53:19.035Z,5.50
2018-08-28T16:55:48.361Z,3.57
2018-08-28T16:58:17.759Z,3.53
2018-08-28T17:00:46.816Z,5.07
2018-08-28T17:03:15.778Z,4.40
2018-08-28T17:05:45.088Z,3.97
2018-08-28T17:08:14.042Z,4.07
2018-08-28T17:10:43.475Z,4.50
2018-08-28T17:13:12.537Z,4.53
2018-08-28T17:15:41.257Z,4.50
2018-08-28T17:18:10.069Z,3.90
2018-08-28T17:20:39.156Z,3.67
2018-08-28T17:23:07.918Z,3.93
2018-08-28T17:25:36.932Z,5.90
2018-08-28T17:28:06.005Z,4.50
2018-08-28T17:30:35.073Z,4.90
2018-08-28T17:33:04.131Z,5.23
2018-08-28T17:35:32.901Z,5.10
2018-08-28T17:38:01.872Z,6.30
2018-08-28T17:40:30.619Z,4.80
2018-08-28T17:43:00.642Z,4.43
2018-08-28T17:45:29.389Z,5.10
2018-08-28T17:47:58.626Z,5.10
2018-08-28T17:50:27.644Z,5.07
2018-08-28T17:52:56.358Z,4.30
2018-08-28T17:55:25.135Z,4.93
2018-08-28T17:57:54.203Z,5.47
2018-08-28T18:00:23.270Z,5.00
2018-08-28T18:02:52.255Z,5.13
2018-08-28T18:05:21.970Z,5.07
2018-08-28T18:07:50.723Z,4.50
2018-08-28T18:10:19.479Z,4.63
2018-08-28T18:12:48.366Z,5.20
2018-08-28T18:15:17.329Z,4.93
2018-08-28T18:17:46.121Z,4.57
2018-08-28T18:20:14.865Z,4.23
2018-08-28T18:22:43.584Z,3.93
2018-08-28T18:25:12.686Z,4.87
2018-08-28T18:27:41.820Z,5.10
2018-08-28T18:30:11.591Z,4.63
2018-08-28T18:32:40.348Z,4.90
2018-08-28T18:35:09.085Z,4.90
2018-08-28T18:37:37.856Z,5.50
2018-08-28T18:40:06.921Z,4.93
2018-08-28T18:42:35.668Z,5.93
2018-08-28T18:45:04.512Z,3.90
2018-08-28T18:47:33.727Z,5.00
2018-08-28T18:50:02.800Z,5.23
2018-08-28T18:52:31.631Z,4.57
2018-08-28T18:55:01.102Z,4.47
2018-08-28T18:57:29.880Z,3.70
2018-08-28T18:59:58.767Z,4.60
2018-08-28T19:02:28.652Z,4.57
2018-08-28T19:04:57.638Z,4.77
2018-08-28T19:07:27.124Z,5.00
2018-08-28T19:09:56.277Z,5.07
2018-08-28T19:12:25.592Z,5.43
2018-08-28T19:14:54.612Z,7.37
2018-08-28T19:17:23.933Z,5.10
2018-08-28T19:19:53.859Z,6.50
2018-08-28T19:22:22.853Z,5.93
2018-08-28T19:24:52.435Z,5.80
2018-08-28T19:27:21.900Z,5.73
2018-08-28T19:29:51.444Z,5.70
2018-08-28T19:32:20.472Z,6.20
2018-08-28T19:34:49.817Z,6.23
2018-08-28T19:37:21.150Z,5.47
2018-08-28T19:39:50.296Z,6.20
2018-08-28T19:42:19.410Z,6.50
2018-08-28T19:44:48.535Z,7.10
2018-08-28T19:47:17.283Z,7.80
2018-08-28T19:49:46.065Z,7.37
2018-08-28T19:52:15.923Z,7.13
2018-08-28T19:54:44.680Z,6.30
2018-08-28T19:57:14.174Z,6.47
2018-08-28T19:59:42.940Z,6.37
2018-08-28T20:02:12.614Z,8.07
2018-08-28T20:04:41.779Z,7.03
2018-08-28T20:07:10.581Z,6.40
2018-08-28T20:09:39.345Z,6.80
2018-08-28T20:12:08.111Z,7.20
2018-08-28T20:14:37.310Z,7.30
2018-08-28T20:17:06.208Z,6.60
2018-08-28T20:19:35.420Z,6.17
2018-08-28T20:22:04.299Z,7.27
2018-08-28T20:24:33.593Z,7.10
2018-08-28T20:27:02.592Z,6.53
2018-08-28T20:29:37.898Z,8.23
2018-08-28T20:32:07.953Z,6.30
2018-08-28T20:34:36.662Z,7.40
2018-08-28T20:37:07.584Z,7.20
2018-08-28T20:39:36.868Z,7.50
2018-08-28T20:42:06.099Z,6.30
2018-08-28T20:44:34.826Z,6.93
2018-08-28T20:47:03.666Z,6.97
2018-08-28T20:49:32.786Z,7.00
2018-08-28T20:52:02.082Z,8.33
2018-08-28T20:54:31.567Z,7.40
2018-08-28T20:57:00.577Z,7.70
2018-08-28T20:59:29.365Z,8.17
2018-08-28T21:01:58.511Z,7.90
2018-08-28T21:04:27.866Z,7.10
2018-08-28T21:06:56.701Z,7.90
2018-08-28T21:09:26.772Z,7.47
2018-08-28T21:11:55.873Z,8.17
2018-08-28T21:14:25.072Z,8.30
2018-08-28T21:16:53.862Z,9.00
2018-08-28T21:19:22.683Z,8.60
2018-08-28T21:21:51.979Z,8.73
2018-08-28T21:24:20.750Z,7.70
2018-08-28T21:26:49.585Z,8.63
2018-08-28T21:29:18.375Z,10.50
2018-08-28T21:31:47.192Z,10.57
2018-08-28T21:34:16.365Z,9.37
2018-08-28T21:36:45.313Z,9.40
2018-08-28T21:39:14.092Z,9.77
2018-08-28T21:41:43.203Z,10.47
2018-08-28T21:44:13.219Z,10.20
2018-08-28T21:46:42.069Z,10.07
2018-08-28T21:49:10.930Z,10.47
2018-08-28T21:51:40.304Z,9.60
2018-08-28T21:54:09.195Z,9.13
2018-08-28T21:56:38.499Z,10.07
2018-08-28T21:59:07.910Z,9.30
2018-08-28T22:01:36.880Z,9.67
2018-08-28T22:04:06.154Z,9.90
2018-08-28T22:06:40.449Z,9.20
2018-08-28T22:09:09.471Z,10.50
2018-08-28T22:11:38.648Z,8.53
2018-08-28T22:14:07.384Z,9.90
2018-08-28T22:16:36.821Z,10.23
2018-08-28T22:19:05.789Z,10.20
2018-08-28T22:21:34.533Z,9.70
2018-08-28T22:24:03.901Z,10.00
2018-08-28T22:26:32.856Z,9.60
2018-08-28T22:29:01.972Z,10.20
2018-08-28T22:31:30.711Z,9.80
2018-08-28T22:33:59.461Z,8.40
2018-08-28T22:36:28.225Z,10.10
2018-08-28T22:38:57.213Z,9.40
2018-08-28T22:41:25.933Z,11.03
2018-08-28T22:43:55.070Z,9.30
2018-08-28T22:46:23.936Z,9.10
2018-08-28T22:48:53.110Z,9.77
2018-08-28T22:51:21.908Z,10.70
2018-08-28T22:53:50.699Z,10.70
2018-08-28T22:56:19.715Z,9.77
2018-08-28T22:58:48.477Z,10.30
2018-08-28T23:01:17.255Z,10.77
2018-08-28T23:03:46.251Z,9.87
2018-08-28T23:06:15.337Z,11.27
2018-08-28T23:08:44.632Z,9.50
2018-08-28T23:11:13.438Z,10.43
2018-08-28T23:13:42.701Z,10.00
2018-08-28T23:16:11.735Z,10.87
2018-08-28T23:18:40.498Z,11.73
2018-08-28T23:21:09.303Z,10.30
2018-08-28T23:23:38.359Z,10.23
2018-08-28T23:26:07.145Z,9.77
2018-08-28T23:28:35.974Z,10.60
2018-08-28T23:31:05.142Z,11.23
2018-08-28T23:33:34.233Z,11.23
2018-08-28T23:36:03.432Z,9.90
2018-08-28T23:38:32.674Z,9.20
2018-08-28T23:41:01.418Z,8.97
2018-08-28T23:43:30.186Z,10.37
2018-08-28T23:45:59.352Z,11.27
2018-08-28T23:48:28.340Z,11.13
2018-08-28T23:50:57.631Z,10.53
2018-08-28T23:53:26.406Z,10.77
2018-08-28T23:55:55.182Z,9.50
2018-08-28T23:58:23.960Z,10.60
